Time;durP1;ratioP1;P1;durP2;ratioP2;P2;SDS_P1;SDS_P2;PMS_P1;PMS_P2;Temp;Humidity;BMP_temperature;BMP_pressure;BME280_temperature;BME280_humidity;BME280_pressure;Samples;Min_cycle;Max_cycle;Signal;HPM_P1;HPM_P2
2020/12/25 00:01:29;;;;;;;5.73;3.47;;;10.20;99.90;;;10.68;57.38;101314.28;4842350;28;99972;-63
2020/12/25 00:03:58;;;;;;;4.97;3.13;;;10.20;99.90;;;10.70;58.41;101317.72;4831306;28;100405;-63
2020/12/25 00:06:27;;;;;;;5.70;3.87;;;10.10;99.90;;;10.72;56.48;101316.81;4859322;28;99414;-62
2020/12/25 00:08:52;;;;;;;6.43;3.90;;;10.20;99.90;;;10.61;56.97;101318.84;4844272;28;101878;-61
2020/12/25 00:11:18;;;;;;;6.70;3.77;;;10.10;99.90;;;10.59;59.77;101319.81;4843262;28;111686;-63
2020/12/25 00:13:47;;;;;;;7.40;3.83;;;10.10;99.90;;;10.62;62.67;101320.59;4851539;28;103832;-62
2020/12/25 00:16:13;;;;;;;4.67;3.70;;;10.00;99.90;;;10.49;57.48;101326.19;4854274;28;109485;-61
2020/12/25 00:18:41;;;;;;;7.20;4.00;;;10.00;99.90;;;10.43;57.52;101325.47;4835245;28;98297;-63
2020/12/25 00:21:07;;;;;;;7.40;3.80;;;10.00;99.90;;;10.61;58.65;101323.25;4836893;28;100487;-62
2020/12/25 00:23:34;;;;;;;9.13;4.50;;;10.00;99.90;;;10.61;58.27;101324.13;4845627;28;99370;-61
2020/12/25 00:26:00;;;;;;;7.63;4.63;;;10.10;99.90;;;10.69;56.52;101330.06;4822406;28;97709;-63
2020/12/25 00:28:25;;;;;;;8.03;4.47;;;10.20;99.90;;;10.65;57.16;101322.28;4840475;28;99164;-62
2020/12/25 00:30:51;;;;;;;8.30;4.30;;;10.20;99.90;;;10.67;57.91;101326.59;4845975;28;101080;-62
2020/12/25 00:33:17;;;;;;;6.20;4.40;;;10.10;99.90;;;10.81;58.34;101336.81;4873554;28;98070;-62
2020/12/25 00:35:42;;;;;;;8.03;5.20;;;10.20;99.90;;;10.89;56.22;101328.69;4830528;28;100573;-61
2020/12/25 00:38:08;;;;;;;6.33;4.90;;;10.40;99.90;;;10.78;56.92;101336.88;4855860;28;97299;-62
2020/12/25 00:40:41;;;;;;;7.53;4.83;;;10.30;99.90;;;10.72;57.38;101327.38;4835491;28;100590;-63
2020/12/25 00:43:07;;;;;;;10.60;5.53;;;10.20;99.90;;;10.72;59.07;101337.91;4835191;28;104096;-62
2020/12/25 00:45:35;;;;;;;8.60;5.47;;;10.10;99.90;;;10.69;56.59;101342.38;4854887;28;102750;-62
2020/12/25 00:48:02;;;;;;;6.83;5.80;;;10.20;99.90;;;10.53;57.31;101343.69;4844244;28;99095;-64
2020/12/25 00:50:28;;;;;;;7.10;5.47;;;10.10;99.90;;;10.52;57.09;101344.59;4828015;28;100554;-63
2020/12/25 00:52:54;;;;;;;7.10;5.73;;;10.10;99.90;;;10.47;56.24;101341.19;4827183;28;100423;-62
2020/12/25 00:55:20;;;;;;;7.73;6.00;;;10.00;99.90;;;10.42;56.93;101347.47;4877551;28;97108;-63
2020/12/25 00:57:45;;;;;;;7.33;5.60;;;10.00;99.90;;;10.47;59.26;101346.47;4853070;28;99483;-58
2020/12/25 01:00:11;;;;;;;7.63;5.60;;;9.90;99.90;;;10.46;56.76;101358.81;4864148;28;119909;-62
2020/12/25 01:02:37;;;;;;;7.40;5.33;;;10.00;99.90;;;10.51;57.22;101358.69;4872128;28;119273;-60
2020/12/25 01:05:03;;;;;;;5.77;5.13;;;10.10;99.90;;;10.62;57.76;101361.94;4876321;28;96846;-61
2020/12/25 01:07:29;;;;;;;9.23;6.00;;;10.10;99.90;;;10.49;57.39;101361.34;4854154;28;108269;-62
2020/12/25 01:09:55;;;;;;;5.90;5.30;;;10.10;99.90;;;10.63;57.80;101363.66;4877130;28;100596;-62
2020/12/25 01:12:20;;;;;;;8.40;5.80;;;10.10;99.90;;;10.84;56.54;101372.81;4875807;28;108101;-63
2020/12/25 01:14:46;;;;;;;7.47;5.90;;;10.30;99.90;;;10.86;55.32;101382.44;4868661;28;119752;-62
2020/12/25 01:17:12;;;;;;;9.27;5.80;;;10.40;99.90;;;10.71;55.48;101381.06;4856613;28;97620;-62
2020/12/25 01:19:38;;;;;;;8.27;5.73;;;10.20;99.90;;;10.59;56.83;101388.41;4864281;28;102282;-61
2020/12/25 01:22:03;;;;;;;7.60;5.70;;;10.10;99.90;;;10.65;59.18;101394.38;4867646;28;102716;-60
2020/12/25 01:24:29;;;;;;;7.70;5.77;;;10.00;99.90;;;10.61;57.39;101392.72;4853857;28;97318;-61
2020/12/25 01:26:55;;;;;;;7.00;5.40;;;10.10;99.90;;;10.66;56.65;101395.25;4865482;28;103908;-61
2020/12/25 01:29:21;;;;;;;8.83;6.20;;;10.20;99.90;;;10.51;56.69;101392.97;4858515;28;130635;-61
2020/12/25 01:31:47;;;;;;;8.03;5.37;;;10.10;99.90;;;10.52;57.17;101397.34;4873632;28;99167;-60
2020/12/25 01:34:12;;;;;;;8.47;5.40;;;10.00;99.90;;;10.45;57.33;101401.03;4861403;28;110966;-61
2020/12/25 01:36:38;;;;;;;9.43;6.17;;;10.00;99.90;;;10.40;58.18;101409.91;4886747;28;97691;-60
2020/12/25 01:39:04;;;;;;;6.77;5.70;;;10.00;99.90;;;10.34;58.17;101417.97;4863957;28;98880;-60
2020/12/25 01:41:30;;;;;;;12.13;6.13;;;9.90;99.90;;;10.38;58.49;101418.75;4879157;28;98183;-61
2020/12/25 01:43:56;;;;;;;9.67;6.53;;;10.00;99.90;;;10.32;58.61;101425.06;4867534;28;99822;-62
2020/12/25 01:46:21;;;;;;;7.03;5.30;;;9.90;99.90;;;10.42;62.98;101423.94;4869784;28;97486;-62
2020/12/25 01:48:48;;;;;;;10.53;7.90;;;9.90;99.90;;;10.38;58.27;101424.91;4855271;28;112954;-62
2020/12/25 01:51:16;;;;;;;11.53;7.90;;;9.90;99.90;;;10.37;56.05;101435.50;4845184;28;99630;-62
2020/12/25 01:53:43;;;;;;;8.47;7.60;;;9.90;99.90;;;10.39;56.95;101438.94;4855000;28;112059;-64
2020/12/25 01:56:09;;;;;;;11.23;7.93;;;9.90;99.90;;;10.28;57.94;101435.72;4862587;28;97910;-60
2020/12/25 01:58:36;;;;;;;11.43;8.17;;;9.90;99.90;;;10.29;57.69;101437.44;4862281;28;112906;-62
2020/12/25 02:01:02;;;;;;;12.80;7.47;;;9.80;99.90;;;10.28;57.89;101444.50;4863039;28;105352;-62
2020/12/25 02:03:29;;;;;;;11.20;7.73;;;9.80;99.90;;;10.25;57.79;101441.91;4873867;28;99755;-62
2020/12/25 02:05:54;;;;;;;8.77;7.87;;;9.80;99.90;;;10.34;56.63;101446.97;4860977;28;98922;-61
2020/12/25 02:08:20;;;;;;;10.73;7.83;;;9.90;99.90;;;10.32;56.40;101447.94;4862635;28;100641;-62
2020/12/25 02:10:46;;;;;;;11.27;7.90;;;9.90;99.90;;;10.26;56.73;101451.53;4853114;28;100086;-62
2020/12/25 02:13:12;;;;;;;10.80;7.00;;;9.80;99.90;;;10.45;58.37;101453.78;4869949;28;103440;-62
2020/12/25 02:15:38;;;;;;;7.23;6.13;;;9.90;99.90;;;10.47;56.72;101457.25;4858368;28;97093;-63
2020/12/25 02:18:05;;;;;;;9.40;7.07;;;9.90;99.90;;;10.62;62.34;101459.56;4876758;28;97022;-62
2020/12/25 02:20:31;;;;;;;9.87;6.50;;;10.00;99.90;;;10.51;55.21;101461.56;4853187;28;98921;-64
2020/12/25 02:22:57;;;;;;;8.43;6.50;;;10.00;99.90;;;10.48;54.26;101469.56;4849208;28;111308;-63
2020/12/25 02:25:23;;;;;;;7.43;6.10;;;10.00;99.90;;;10.75;60.92;101468.91;4854008;28;105801;-62
2020/12/25 02:27:49;;;;;;;9.23;7.73;;;10.00;99.90;;;10.52;53.54;101481.75;4865524;28;99372;-62
2020/12/25 02:30:15;;;;;;;6.93;6.17;;;10.00;99.90;;;10.47;53.90;101473.09;4869298;28;114204;-63
2020/12/25 02:32:41;;;;;;;7.27;6.53;;;9.90;99.90;;;10.36;55.07;101487.38;4870012;28;97261;-61
2020/12/25 02:35:08;;;;;;;5.77;5.07;;;9.80;99.90;;;10.39;54.65;101487.31;4861379;28;97454;-62
2020/12/25 02:37:34;;;;;;;7.23;5.13;;;9.90;99.90;;;10.38;55.63;101490.84;4853499;28;100617;-62
2020/12/25 02:40:00;;;;;;;8.17;5.23;;;9.90;99.90;;;10.32;55.86;101490.97;4845292;28;98640;-63
2020/12/25 02:42:26;;;;;;;7.20;4.83;;;9.80;99.90;;;10.49;54.56;101487.09;4871320;28;99970;-62
2020/12/25 02:44:52;;;;;;;9.80;4.87;;;10.00;99.90;;;10.45;54.33;101501.28;4855509;28;109266;-62
2020/12/25 02:47:18;;;;;;;7.03;4.77;;;9.90;99.90;;;10.38;56.24;101504.03;4849710;28;104690;-63
2020/12/25 02:49:44;;;;;;;10.43;4.43;;;9.90;99.90;;;10.51;55.50;101501.13;4871113;28;98665;-62
2020/12/25 02:52:09;;;;;;;7.50;5.10;;;10.00;99.90;;;10.47;56.59;101502.09;4852573;28;98222;-62
2020/12/25 02:54:35;;;;;;;7.43;4.83;;;10.00;99.90;;;10.48;56.59;101507.34;4868356;28;97678;-62
2020/12/25 02:57:01;;;;;;;7.43;4.90;;;10.00;99.90;;;10.46;55.21;101514.44;4855513;28;100939;-62
2020/12/25 02:59:27;;;;;;;7.00;4.93;;;9.90;99.90;;;10.37;54.45;101504.06;4849836;28;99795;-62
2020/12/25 03:01:53;;;;;;;8.60;5.23;;;9.90;99.90;;;10.34;55.49;101505.00;4853457;28;96986;-63
2020/12/25 03:04:21;;;;;;;6.47;4.53;;;9.90;99.90;;;10.57;57.45;101514.19;4849022;28;96923;-64
2020/12/25 03:06:47;;;;;;;9.43;4.60;;;9.90;99.90;;;10.52;53.96;101524.84;4853029;28;99434;-61
2020/12/25 03:09:13;;;;;;;6.47;3.70;;;10.00;99.90;;;10.68;61.55;101525.38;4856321;28;98966;-62
2020/12/25 03:11:40;;;;;;;7.10;4.30;;;10.00;99.90;;;10.61;52.55;101523.78;4869473;28;97259;-62
2020/12/25 03:14:06;;;;;;;7.23;4.67;;;10.10;99.90;;;10.46;53.59;101539.94;4853959;28;97906;-62
2020/12/25 03:16:32;;;;;;;7.03;4.20;;;9.90;99.90;;;10.35;53.99;101543.66;4853595;28;97900;-61
2020/12/25 03:18:58;;;;;;;10.63;4.27;;;9.80;99.90;;;10.29;55.06;101542.94;4866330;28;98563;-63
2020/12/25 03:21:24;;;;;;;8.40;3.93;;;9.70;99.90;;;10.26;54.40;101542.97;4867971;28;97086;-62
2020/12/25 03:23:50;;;;;;;5.83;4.10;;;9.70;99.90;;;10.29;57.78;101543.81;4857423;28;111436;-62
2020/12/25 03:26:17;;;;;;;7.33;4.27;;;9.70;99.90;;;10.14;54.46;101541.44;4861436;28;103451;-62
2020/12/25 03:28:43;;;;;;;6.23;4.10;;;9.70;99.90;;;10.10;55.07;101551.16;4856893;28;98878;-62
2020/12/25 03:31:09;;;;;;;8.97;4.80;;;9.60;99.90;;;10.09;54.85;101551.19;4849185;28;98273;-61
2020/12/25 03:33:35;;;;;;;4.60;3.93;;;9.60;99.90;;;9.97;55.61;101552.28;4874174;28;101251;-62
2020/12/25 03:36:02;;;;;;;7.97;4.17;;;9.50;99.90;;;9.93;55.12;101550.63;4853775;28;100377;-61
2020/12/25 03:38:27;;;;;;;7.93;3.93;;;9.50;99.90;;;9.92;54.51;101558.56;4860515;28;99889;-61
2020/12/25 03:40:53;;;;;;;8.10;4.30;;;9.50;99.90;;;10.12;58.80;101566.94;4858145;28;111841;-60
2020/12/25 03:43:19;;;;;;;7.87;4.40;;;9.50;99.90;;;10.09;53.88;101564.38;4875385;28;101954;-62
2020/12/25 03:45:45;;;;;;;5.90;4.33;;;9.60;99.90;;;10.22;56.89;101563.25;4847069;28;105364;-62
2020/12/25 03:48:12;;;;;;;4.10;3.33;;;9.60;99.90;;;10.12;54.25;101562.53;4852431;28;99450;-61
2020/12/25 03:50:38;;;;;;;8.23;3.87;;;9.60;99.90;;;10.16;54.71;101573.91;4856144;28;97145;-62
2020/12/25 03:53:03;;;;;;;5.50;3.47;;;9.60;99.90;;;10.25;55.30;101563.19;4966226;23;112012;-63
2020/12/25 03:55:29;;;;;;;6.57;3.63;;;9.70;99.90;;;10.18;53.21;101574.75;4886938;28;105537;-63
2020/12/25 03:57:55;;;;;;;5.00;3.37;;;9.60;99.90;;;10.16;53.52;101573.03;4878646;28;103299;-63
2020/12/25 04:00:21;;;;;;;7.67;3.60;;;9.60;99.90;;;10.09;53.92;101572.28;4883334;28;104610;-62
2020/12/25 04:02:48;;;;;;;7.67;3.37;;;9.50;99.90;;;10.00;53.59;101577.75;4866693;28;99308;-64
2020/12/25 04:05:15;;;;;;;6.67;3.13;;;9.50;99.90;;;10.05;55.07;101589.06;4891312;28;101795;-63
2020/12/25 04:07:40;;;;;;;9.30;3.40;;;9.50;99.90;;;10.02;61.13;101581.22;4887581;28;99246;-63
2020/12/25 04:10:06;;;;;;;8.23;3.30;;;9.40;99.90;;;9.99;54.11;101591.81;4872985;28;96898;-63
2020/12/25 04:12:32;;;;;;;8.47;3.37;;;9.40;99.90;;;9.88;55.57;101588.50;4880056;28;99054;-62
2020/12/25 04:14:58;;;;;;;8.57;3.20;;;9.40;99.90;;;9.78;54.75;101593.94;4875703;28;100671;-63
2020/12/25 04:17:23;;;;;;;9.73;3.90;;;9.30;99.90;;;9.76;54.75;101595.72;4882962;28;101898;-63
2020/12/25 04:19:49;;;;;;;8.67;3.40;;;9.30;99.90;;;9.69;54.61;101599.38;4888753;28;102012;-63
2020/12/25 04:22:15;;;;;;;8.90;3.43;;;9.20;99.90;;;9.60;56.04;101599.50;4888343;28;97602;-64
2020/12/25 04:24:41;;;;;;;9.27;3.23;;;9.20;99.90;;;9.56;54.63;101597.84;4907538;28;98389;-63
2020/12/25 04:27:07;;;;;;;6.00;3.13;;;9.10;99.90;;;9.54;55.13;101603.09;4900608;28;101312;-62
2020/12/25 04:29:32;;;;;;;6.53;2.70;;;9.10;99.90;;;9.53;54.67;101609.25;4866792;28;99976;-63
2020/12/25 04:31:58;;;;;;;8.77;3.07;;;9.10;99.90;;;9.62;56.65;101613.53;4889454;28;96953;-63
2020/12/25 04:34:24;;;;;;;3.20;2.10;;;9.10;99.90;;;9.55;55.44;101627.72;4875571;28;110693;-63
2020/12/25 04:36:50;;;;;;;3.87;2.60;;;9.10;99.90;;;9.53;56.20;101632.09;4909419;28;104877;-62
2020/12/25 04:39:15;;;;;;;4.87;2.47;;;9.10;99.90;;;9.72;56.24;101638.84;4886298;28;97635;-64
2020/12/25 04:41:41;;;;;;;9.50;2.70;;;9.20;99.90;;;9.62;55.21;101650.41;4892495;28;97819;-63
2020/12/25 04:44:07;;;;;;;6.60;2.73;;;9.20;99.90;;;9.64;54.31;101653.88;4863481;28;102971;-64
2020/12/25 04:46:34;;;;;;;5.87;2.33;;;9.20;99.90;;;9.61;54.25;101653.06;4893393;28;98255;-63
2020/12/25 04:49:00;;;;;;;7.33;2.57;;;9.10;99.90;;;9.49;53.90;101654.13;4860496;28;99737;-63
2020/12/25 04:51:27;;;;;;;7.60;3.03;;;9.00;99.90;;;9.75;55.53;101662.50;4896888;28;97486;-63
2020/12/25 04:53:54;;;;;;;8.60;2.73;;;9.10;99.90;;;9.61;54.82;101659.22;4882290;28;97668;-63
2020/12/25 04:56:23;;;;;;;10.80;3.53;;;9.10;99.90;;;9.58;54.36;101663.66;4878526;28;100006;-63
2020/12/25 04:58:49;;;;;;;8.67;3.27;;;9.00;99.90;;;9.80;62.60;101662.41;4879235;28;97431;-63
2020/12/25 05:01:15;;;;;;;7.43;2.70;;;9.10;99.90;;;9.63;54.22;101672.34;4869437;28;97341;-62
2020/12/25 05:03:44;;;;;;;6.47;2.73;;;9.10;99.90;;;9.59;55.66;101682.06;4883891;28;97061;-63
2020/12/25 05:06:15;;;;;;;6.90;3.37;;;9.00;99.90;;;9.44;54.11;101677.03;4874708;28;103935;-64
2020/12/25 05:08:49;;;;;;;7.97;3.30;;;8.90;99.90;;;9.42;54.67;101673.56;4900500;28;97559;-63
2020/12/25 05:11:24;;;;;;;7.67;3.37;;;8.90;99.90;;;9.52;54.45;101680.41;4857043;28;102033;-64
2020/12/25 05:13:53;;;;;;;8.57;3.23;;;9.00;99.90;;;9.65;58.38;101676.69;4909653;28;104465;-63
2020/12/25 05:16:21;;;;;;;11.77;3.77;;;9.00;99.90;;;9.60;53.82;101678.53;4879823;28;100029;-63
2020/12/25 05:18:50;;;;;;;7.73;3.57;;;9.00;99.90;;;9.56;54.06;101682.13;4910379;28;97409;-63
2020/12/25 05:21:21;;;;;;;8.00;3.10;;;9.00;99.90;;;9.40;54.77;101681.50;4882616;28;97011;-63
2020/12/25 05:23:49;;;;;;;11.17;3.20;;;8.80;99.90;;;9.63;55.66;101681.13;4890918;28;100725;-63
2020/12/25 05:26:17;;;;;;;11.77;3.50;;;9.00;99.90;;;9.58;53.98;101690.88;4879154;28;99573;-63
2020/12/25 05:28:46;;;;;;;5.47;2.33;;;9.00;99.90;;;9.60;55.89;101699.63;4893501;28;98383;-63
2020/12/25 05:31:12;;;;;;;9.43;3.63;;;9.00;99.90;;;9.64;53.16;101696.03;4881051;28;99837;-62
2020/12/25 05:33:39;;;;;;;9.53;2.93;;;9.00;99.90;;;9.88;54.95;101693.91;4892867;28;99664;-62
2020/12/25 05:36:14;;;;;;;10.20;3.40;;;9.10;99.90;;;9.80;56.91;101692.25;4891989;28;98759;-62
2020/12/25 05:38:48;;;;;;;10.07;3.47;;;9.10;99.90;;;9.67;52.84;101695.13;4889164;28;98642;-65
2020/12/25 05:41:14;;;;;;;12.57;3.67;;;9.00;99.90;;;9.60;54.93;101686.44;4880797;28;97138;-62
2020/12/25 05:43:50;;;;;;;10.93;3.30;;;8.90;99.90;;;9.36;53.74;101697.34;4906821;28;100317;-62
2020/12/25 05:46:16;;;;;;;11.07;3.77;;;8.70;99.90;;;9.41;52.91;101706.06;4878179;28;104664;-63
2020/12/25 05:48:48;;;;;;;5.43;3.50;;;8.80;99.90;;;9.40;59.10;101701.66;4899651;28;97034;-61
2020/12/25 05:51:13;;;;;;;15.10;4.27;;;8.70;99.90;;;9.22;54.75;101701.03;4872585;28;98382;-62
2020/12/25 05:53:44;;;;;;;9.03;3.63;;;8.60;99.90;;;9.13;54.26;101703.81;4895820;28;116618;-63
2020/12/25 05:56:14;;;;;;;9.60;4.00;;;8.50;99.90;;;9.07;54.60;101703.00;4903936;28;105645;-61
2020/12/25 05:58:43;;;;;;;11.60;4.07;;;8.50;99.90;;;8.97;55.10;101707.53;4878882;28;97314;-63
2020/12/25 06:01:10;;;;;;;10.97;4.30;;;8.40;99.90;;;8.85;54.90;101716.44;4874527;28;97518;-62
2020/12/25 06:03:38;;;;;;;8.33;3.63;;;8.30;99.90;;;9.03;56.54;101728.50;4861272;28;99492;-62
2020/12/25 06:06:13;;;;;;;12.90;4.13;;;8.30;99.90;;;8.93;54.42;101726.84;4892778;28;97304;-63
2020/12/25 06:09:15;;;;;;;10.23;3.73;;;8.40;99.90;;;9.10;55.17;101730.13;4891584;28;99225;-63
2020/12/25 06:11:48;;;;;;;11.33;4.23;;;8.50;99.90;;;9.23;53.98;101747.53;4865367;28;99531;-63
2020/12/25 06:14:14;;;;;;;11.33;3.33;;;8.60;99.90;;;9.15;54.08;101740.63;4859782;28;102337;-65
2020/12/25 06:17:04;;;;;;;7.37;3.47;;;8.60;99.90;;;9.06;54.26;101749.50;4896226;28;102618;-63
2020/12/25 06:20:00;;;;;;;9.80;3.40;;;8.50;99.90;;;9.08;54.63;101750.34;4866722;28;98636;-63
2020/12/25 06:22:45;;;;;;;9.77;3.73;;;8.50;99.90;;;9.03;54.47;101748.69;4893134;28;98310;-63
2020/12/25 06:25:15;;;;;;;7.97;3.10;;;8.40;99.90;;;8.93;53.94;101745.28;4872875;28;105452;-64
2020/12/25 06:27:51;;;;;;;9.53;3.07;;;8.30;99.90;;;8.91;56.49;101754.94;4901807;28;98259;-63
2020/12/25 06:30:26;;;;;;;11.20;3.83;;;8.30;99.90;;;8.83;55.09;101756.81;4852496;28;98629;-63
2020/12/25 06:32:56;;;;;;;9.00;3.17;;;8.30;99.90;;;8.75;56.23;101758.63;4875430;28;99501;-63
2020/12/25 06:35:31;;;;;;;9.83;3.50;;;8.20;99.90;;;8.85;56.22;101760.28;4871920;28;101547;-63
2020/12/25 06:37:57;;;;;;;9.40;3.80;;;8.20;99.90;;;8.82;54.68;101763.81;4892425;28;100193;-63
2020/12/25 06:40:25;;;;;;;7.77;2.70;;;8.20;99.90;;;8.80;54.33;101772.59;4878062;28;102684;-63
2020/12/25 06:42:54;;;;;;;13.43;3.77;;;8.20;99.90;;;8.77;55.60;101777.91;4910435;28;97061;-63
2020/12/25 06:45:28;;;;;;;6.87;2.77;;;8.10;99.90;;;8.74;56.37;101785.84;4882555;28;103580;-62
2020/12/25 06:48:14;;;;;;;10.40;2.63;;;8.10;99.90;;;8.73;57.40;101778.84;4872880;28;97307;-64
2020/12/25 06:50:50;;;;;;;10.70;3.20;;;8.00;99.90;;;8.80;55.83;101777.88;4879316;28;105370;-63
2020/12/25 06:53:42;;;;;;;11.80;2.80;;;8.10;99.90;;;8.97;62.16;101780.31;4892491;28;97016;-62
2020/12/25 06:56:17;;;;;;;9.40;2.70;;;8.20;99.90;;;8.94;55.30;101781.22;4879731;28;102641;-63
2020/12/25 06:58:52;;;;;;;7.97;2.83;;;8.30;99.90;;;8.87;55.38;101790.09;4881311;28;97294;-63
2020/12/25 07:01:37;;;;;;;8.70;3.17;;;8.20;99.90;;;8.87;54.95;101790.09;4861366;28;98898;-62
2020/12/25 07:04:04;;;;;;;10.43;2.70;;;8.30;99.90;;;8.83;55.10;101793.66;4891103;28;98775;-65
2020/12/25 07:06:31;;;;;;;11.70;2.87;;;8.20;99.90;;;8.75;54.90;101798.97;4873744;28;104049;-62
2020/12/25 07:09:10;;;;;;;10.80;3.03;;;8.20;99.90;;;8.72;56.35;101800.78;4880601;28;103875;-61
2020/12/25 07:11:39;;;;;;;13.57;3.30;;;8.10;99.90;;;8.59;55.67;101811.41;4872034;28;99116;-62
2020/12/25 07:14:05;;;;;;;11.37;3.20;;;8.00;99.90;;;8.51;56.54;101810.59;4895034;28;97514;-62
2020/12/25 07:16:31;;;;;;;11.03;3.13;;;7.90;99.90;;;8.46;56.43;101809.75;4894342;28;104968;-62
2020/12/25 07:18:57;;;;;;;7.90;2.73;;;7.90;99.90;;;8.37;56.39;101809.81;4880230;28;99738;-62
2020/12/25 07:21:23;;;;;;;10.30;3.73;;;7.80;99.90;;;8.51;58.47;101823.72;4874719;28;102663;-62
2020/12/25 07:23:49;;;;;;;12.67;3.23;;;7.90;99.90;;;8.59;56.25;101827.19;4912598;28;97394;-65
2020/12/25 07:26:15;;;;;;;8.13;2.97;;;8.10;99.90;;;8.61;56.01;101825.41;4894169;28;99475;-63
2020/12/25 07:28:41;;;;;;;10.10;3.20;;;8.10;99.90;;;8.62;56.45;101832.41;4901013;28;99148;-62
2020/12/25 07:31:07;;;;;;;10.83;4.10;;;8.10;99.90;;;8.65;56.81;101836.75;4882522;28;97007;-63
2020/12/25 07:33:33;;;;;;;11.73;4.30;;;8.10;99.90;;;8.70;55.31;101840.25;4877400;28;97503;-62
2020/12/25 07:35:59;;;;;;;9.93;4.00;;;8.20;99.90;;;8.81;56.72;101848.00;4883859;28;100654;-63
2020/12/25 07:38:25;;;;;;;10.10;4.47;;;8.20;99.90;;;8.93;56.05;101847.91;4874251;28;104089;-62
2020/12/25 07:40:52;;;;;;;11.70;4.43;;;8.30;99.90;;;8.97;55.85;101844.38;4894835;28;100195;-63
2020/12/25 07:43:18;;;;;;;11.33;4.50;;;8.40;99.90;;;9.13;58.66;101851.22;4882747;28;97577;-62
2020/12/25 07:45:46;;;;;;;10.70;4.30;;;8.40;99.90;;;9.13;56.04;101851.22;4882809;28;100446;-63
2020/12/25 07:48:12;;;;;;;9.10;4.40;;;8.50;99.90;;;9.23;56.97;101854.59;4885650;28;104671;-63
2020/12/25 07:50:45;;;;;;;12.90;4.20;;;8.60;99.90;;;9.19;54.97;101845.88;4887292;28;102990;-63
2020/12/25 07:53:15;;;;;;;14.47;5.33;;;8.60;99.90;;;9.15;54.81;101859.09;4886870;28;97825;-61
2020/12/25 07:55:47;;;;;;;8.07;3.83;;;8.60;99.90;;;9.14;55.15;101874.03;4897332;28;100143;-62
2020/12/25 07:58:17;;;;;;;13.87;4.60;;;8.60;99.90;;;9.30;58.77;101873.84;4868846;28;100036;-62
2020/12/25 08:00:44;;;;;;;9.67;4.27;;;8.70;99.90;;;9.19;54.70;101872.19;4887290;28;99398;-62
2020/12/25 08:03:13;;;;;;;14.03;4.30;;;8.70;99.90;;;9.03;55.13;101875.00;4887602;28;97501;-63
2020/12/25 08:05:40;;;;;;;13.53;4.23;;;8.50;99.90;;;9.06;55.75;101870.56;4894282;28;99649;-63
2020/12/25 08:08:06;;;;;;;10.07;4.47;;;8.50;99.90;;;9.21;58.28;101870.41;4900666;28;119022;-63
2020/12/25 08:10:36;;;;;;;10.20;4.27;;;8.60;99.90;;;9.37;54.74;101873.75;4890600;28;99870;-63
2020/12/25 08:13:06;;;;;;;10.70;4.40;;;8.80;99.90;;;9.30;54.83;101879.13;4891439;28;99568;-62
2020/12/25 08:15:36;;;;;;;12.30;4.53;;;8.80;99.90;;;9.36;57.07;101879.03;4878700;28;101023;-63
2020/12/25 08:18:06;;;;;;;11.03;4.70;;;8.80;99.90;;;9.39;55.23;101884.25;4908253;28;99593;-63
2020/12/25 08:20:33;;;;;;;10.23;4.83;;;8.80;99.90;;;9.25;55.37;101882.66;4863680;28;100133;-62
2020/12/25 08:23:03;;;;;;;13.60;4.97;;;8.80;99.90;;;9.30;54.53;101880.00;4897821;28;97396;-62
2020/12/25 08:25:31;;;;;;;14.20;4.77;;;8.80;99.90;;;9.24;54.70;101883.53;4861537;28;98917;-62
2020/12/25 08:27:58;;;;;;;9.20;4.33;;;8.80;99.90;;;9.25;54.99;101877.38;4912209;28;97480;-61
2020/12/25 08:30:25;;;;;;;11.17;3.73;;;8.80;99.90;;;9.24;54.45;101886.19;4880491;28;98613;-62
2020/12/25 08:32:59;;;;;;;7.83;3.70;;;8.80;99.90;;;9.30;55.71;101887.88;4893322;28;99914;-61
2020/12/25 08:35:29;;;;;;;10.20;3.63;;;8.80;99.90;;;9.48;59.75;101890.31;4867710;28;99133;-61
2020/12/25 08:38:00;;;;;;;11.63;3.73;;;8.90;99.90;;;9.36;54.72;101881.66;4891978;28;104235;-63
2020/12/25 08:40:31;;;;;;;13.20;3.70;;;8.90;99.90;;;9.54;58.59;101881.44;4903248;28;100257;-62
2020/12/25 08:43:09;;;;;;;6.43;3.00;;;8.90;99.90;;;9.48;54.07;101884.16;4893156;28;99227;-62
2020/12/25 08:45:40;;;;;;;9.50;3.33;;;8.90;99.90;;;9.53;54.05;101887.63;4871670;28;99497;-62
2020/12/25 08:48:11;;;;;;;12.13;3.53;;;9.00;99.90;;;9.57;55.54;101888.47;4905956;28;101650;-63
2020/12/25 08:50:40;;;;;;;8.73;4.00;;;8.90;99.90;;;9.64;58.20;101885.72;4867748;28;101969;-63
2020/12/25 08:53:17;;;;;;;9.83;3.77;;;9.00;99.90;;;9.52;54.71;101875.34;4887858;28;96987;-62
2020/12/25 08:55:45;;;;;;;8.23;4.57;;;9.00;99.90;;;9.60;54.53;101877.88;4897831;28;97160;-62
2020/12/25 08:58:15;;;;;;;10.07;5.77;;;9.00;99.90;;;9.64;54.51;101880.47;4859285;28;99352;-62
2020/12/25 09:00:41;;;;;;;16.60;7.23;;;9.00;99.90;;;9.59;54.13;101878.78;4896729;28;97627;-62
2020/12/25 09:03:07;;;;;;;10.20;4.80;;;9.00;99.90;;;9.49;55.23;101880.66;4890821;28;112059;-60
2020/12/25 09:05:32;;;;;;;10.30;3.90;;;8.90;99.90;;;9.45;55.16;101878.94;4895849;28;118640;-62
2020/12/25 09:07:58;;;;;;;9.77;4.10;;;8.80;99.90;;;9.59;59.50;101879.66;4878055;28;100477;-62
2020/12/25 09:10:25;;;;;;;8.00;4.27;;;8.80;99.90;;;9.96;61.02;101877.41;4904136;28;97432;-61
2020/12/25 09:12:51;;;;;;;6.97;3.43;;;9.00;99.90;;;9.89;55.35;101882.78;4885472;28;103124;-65
2020/12/25 09:15:16;;;;;;;8.93;4.53;;;9.10;99.90;;;9.79;54.90;101890.81;4914623;28;102904;-62
2020/12/25 09:17:42;;;;;;;8.63;3.97;;;9.10;99.90;;;9.69;54.10;101899.75;4876836;28;99015;-62
2020/12/25 09:20:08;;;;;;;11.83;6.13;;;9.10;99.90;;;9.63;53.40;101899.78;4893635;28;99452;-62
2020/12/25 09:22:34;;;;;;;9.07;6.17;;;9.10;99.90;;;9.52;53.90;101901.66;4878640;28;99202;-62
2020/12/25 09:25:00;;;;;;;10.43;3.93;;;9.10;99.90;;;9.62;53.21;101907.72;4895806;28;101357;-60
2020/12/25 09:27:26;;;;;;;7.30;3.50;;;9.10;99.90;;;9.54;56.37;101905.16;4885091;28;99888;-64
2020/12/25 09:29:51;;;;;;;8.03;3.57;;;9.00;99.90;;;9.52;54.29;101909.56;4912637;28;99044;-65
2020/12/25 09:32:17;;;;;;;6.07;2.43;;;9.00;99.90;;;9.39;54.49;101910.59;4878334;28;99560;-63
2020/12/25 09:34:43;;;;;;;10.43;3.57;;;8.90;99.90;;;9.52;55.19;101917.47;4900487;28;100977;-63
2020/12/25 09:37:09;;;;;;;8.70;3.17;;;8.90;99.90;;;9.47;54.57;101925.44;4889629;28;99385;-64
2020/12/25 09:39:34;;;;;;;9.83;3.63;;;9.00;99.90;;;9.46;54.96;101928.97;4882205;28;96777;-62
2020/12/25 09:42:00;;;;;;;6.57;2.80;;;9.00;99.90;;;9.36;54.92;101931.72;4877847;28;108023;-63
2020/12/25 09:44:26;;;;;;;8.13;3.40;;;8.90;99.90;;;9.72;54.77;101931.31;4902451;28;119979;-60
2020/12/25 09:46:52;;;;;;;11.77;3.80;;;9.10;99.90;;;9.79;56.82;101938.25;4888159;28;103362;-65
2020/12/25 09:49:17;;;;;;;11.00;3.07;;;9.20;99.90;;;9.65;54.65;101940.16;4898305;28;99489;-62
2020/12/25 09:51:43;;;;;;;8.13;3.00;;;9.10;99.90;;;9.76;56.04;101937.41;4897028;28;104386;-63
2020/12/25 09:54:09;;;;;;;8.77;2.97;;;9.10;99.90;;;9.80;55.94;101939.97;4874232;28;99341;-64
2020/12/25 09:56:34;;;;;;;9.10;4.07;;;9.10;99.90;;;9.70;55.20;101933.09;4899968;28;118043;-62
2020/12/25 09:59:00;;;;;;;9.63;5.17;;;9.10;99.90;;;9.78;60.03;101936.50;4879097;28;117748;-63
2020/12/25 10:01:26;;;;;;;7.53;4.10;;;9.10;99.90;;;10.10;55.14;101945.75;4878323;28;113565;-63
2020/12/25 10:03:52;;;;;;;10.53;3.80;;;9.50;99.90;;;9.80;53.54;101937.34;4877682;28;102548;-65
2020/12/25 10:06:20;;;;;;;9.73;3.90;;;9.30;99.90;;;9.94;52.64;101941.56;4878516;28;110843;-63
2020/12/25 10:08:45;;;;;;;12.90;4.37;;;9.40;99.90;;;9.87;52.81;101934.66;4889502;28;97220;-63
2020/12/25 10:11:11;;;;;;;10.20;3.97;;;9.30;99.90;;;9.90;53.35;101942.50;4861534;28;98747;-62
2020/12/25 10:13:37;;;;;;;5.93;3.40;;;9.30;99.90;;;10.00;52.91;101949.44;4875013;28;101715;-61
2020/12/25 10:16:03;;;;;;;10.87;4.37;;;9.50;99.90;;;9.70;53.89;101943.63;4863974;28;99129;-61
2020/12/25 10:18:28;;;;;;;11.47;4.23;;;9.20;99.90;;;9.60;54.71;101935.84;4872930;28;99233;-61
2020/12/25 10:20:54;;;;;;;7.80;4.43;;;9.20;99.90;;;9.52;53.80;101943.81;4886199;28;97650;-61